This is the latest recevied weather packets stored in our database for station/object WA7ABU-29. If no packets are shown the sender has not sent any weather packets the latest 10 day(s).
| Time | Temp. | Humidity | Pressure | Rain* | Wind** | Luminosity | Snow |
|---|---|---|---|---|---|---|---|
| 1777610586 | 16.11° C | 60% | 997 hPa | 0 mm | - | - | - |
| 1777609779 | 16.11° C | 61% | 996.6 hPa | 0 mm | - | - | - |
| 1777608540 | 17.22° C | 60% | 996.3 hPa | 0 mm | - | - | - |
| 1777608292 | 17.22° C | 60% | 996.3 hPa | 0 mm | - | - | - |
| 1777608045 | 16.67° C | 61% | 995.9 hPa | 0 mm | - | - | - |
| 1777607549 | 16.67° C | 63% | 996.3 hPa | 0 mm | - | - | - |
| 1777606752 | 17.22° C | 61% | 996.3 hPa | 0 mm | - | - | - |
| 1777606504 | 16.67° C | 61% | 996.3 hPa | 0 mm | - | - | - |
| 1777606111 | 16.67° C | 62% | 996.3 hPa | 0 mm | - | - | - |
| 1777604889 | 16.67° C | 64% | 995.9 hPa | 0 mm | - | - | - |
| 1777604642 | 16.67° C | 64% | 995.9 hPa | 0 mm | - | - | - |
| 1777604518 | 17.22° C | 64% | 995.9 hPa | 0 mm | - | - | - |
| 1777604271 | 17.22° C | 64% | 995.6 hPa | 0 mm | - | - | - |
| 1777602191 | 20.56° C | 50% | 995.6 hPa | 0 mm | - | - | - |
| 1777601797 | 21.11° C | 51% | 995.6 hPa | 0 mm | - | - | - |
| 1777600275 | 21.11° C | 53% | 995.9 hPa | 0 mm | - | - | - |
| 1777599467 | 21.67° C | 56% | 995.6 hPa | 0 mm | - | - | - |
| 1777598971 | 21.67° C | 56% | 995.9 hPa | 0 mm | - | - | - |
| 1777598476 | 22.22° C | 57% | 996.3 hPa | 0 mm | - | - | - |
| 1777598229 | 22.22° C | 56% | 995.9 hPa | 0 mm | - | - | - |
| 1777597361 | 22.78° C | 57% | 996.3 hPa | 0 mm | - | - | - |
| 1777597237 | 22.78° C | 55% | 996.3 hPa | 0 mm | - | - | - |
| 1777595934 | 22.78° C | 54% | 996.3 hPa | 0 mm | - | - | - |
| 1777595686 | 22.78° C | 53% | 996.3 hPa | 0 mm | - | - | - |
| 1777595439 | 23.33° C | 53% | 996.3 hPa | 0 mm | - | - | - |
* Rain latest hour (hover to see other rain measurements)
** Current wind speed in m/s (hover to see current wind gust speed)